sensor_id;sensor_type;location;lat;lon;timestamp;P1;durP1;ratioP1;P2;durP2;ratioP2
14377;SDS011;7272;53.668;9.578;2022-11-20T00:02:13;3.40;;;3.10;;
14377;SDS011;7272;53.668;9.578;2022-11-20T00:05:16;3.60;;;3.30;;
14377;SDS011;7272;53.668;9.578;2022-11-20T00:08:18;3.97;;;3.67;;
14377;SDS011;7272;53.668;9.578;2022-11-20T00:11:21;4.13;;;3.70;;
14377;SDS011;7272;53.668;9.578;2022-11-20T00:14:24;3.87;;;3.37;;
14377;SDS011;7272;53.668;9.578;2022-11-20T00:17:26;4.37;;;3.60;;
14377;SDS011;7272;53.668;9.578;2022-11-20T00:20:29;4.27;;;3.70;;
14377;SDS011;7272;53.668;9.578;2022-11-20T00:23:31;3.40;;;3.10;;
14377;SDS011;7272;53.668;9.578;2022-11-20T00:26:34;3.30;;;3.00;;
14377;SDS011;7272;53.668;9.578;2022-11-20T00:29:36;4.17;;;3.80;;
14377;SDS011;7272;53.668;9.578;2022-11-20T00:32:37;3.30;;;3.00;;
14377;SDS011;7272;53.668;9.578;2022-11-20T00:35:41;4.07;;;3.70;;
14377;SDS011;7272;53.668;9.578;2022-11-20T00:38:43;8.87;;;3.90;;
14377;SDS011;7272;53.668;9.578;2022-11-20T00:41:45;4.70;;;3.60;;
14377;SDS011;7272;53.668;9.578;2022-11-20T00:44:47;3.93;;;3.27;;
14377;SDS011;7272;53.668;9.578;2022-11-20T00:47:49;3.77;;;3.40;;
14377;SDS011;7272;53.668;9.578;2022-11-20T00:50:52;2.90;;;2.70;;
14377;SDS011;7272;53.668;9.578;2022-11-20T00:53:54;3.30;;;3.03;;
14377;SDS011;7272;53.668;9.578;2022-11-20T00:56:57;3.83;;;3.40;;
14377;SDS011;7272;53.668;9.578;2022-11-20T00:59:59;3.77;;;3.47;;
14377;SDS011;7272;53.668;9.578;2022-11-20T01:03:01;4.17;;;3.27;;
14377;SDS011;7272;53.668;9.578;2022-11-20T01:06:05;3.40;;;3.20;;
14377;SDS011;7272;53.668;9.578;2022-11-20T01:09:10;3.57;;;3.27;;
14377;SDS011;7272;53.668;9.578;2022-11-20T01:12:13;2.90;;;2.70;;
14377;SDS011;7272;53.668;9.578;2022-11-20T01:15:15;3.00;;;2.80;;
14377;SDS011;7272;53.668;9.578;2022-11-20T01:18:17;3.10;;;2.80;;
14377;SDS011;7272;53.668;9.578;2022-11-20T01:21:21;3.40;;;2.90;;
14377;SDS011;7272;53.668;9.578;2022-11-20T01:24:24;3.13;;;2.93;;
14377;SDS011;7272;53.668;9.578;2022-11-20T01:27:26;3.57;;;3.10;;
14377;SDS011;7272;53.668;9.578;2022-11-20T01:30:28;3.23;;;3.03;;
14377;SDS011;7272;53.668;9.578;2022-11-20T01:33:30;3.70;;;3.40;;
14377;SDS011;7272;53.668;9.578;2022-11-20T01:36:33;3.80;;;3.50;;
14377;SDS011;7272;53.668;9.578;2022-11-20T01:39:37;3.50;;;3.23;;
14377;SDS011;7272;53.668;9.578;2022-11-20T01:42:43;3.70;;;3.40;;
14377;SDS011;7272;53.668;9.578;2022-11-20T01:46:13;4.03;;;3.50;;
14377;SDS011;7272;53.668;9.578;2022-11-20T01:49:17;4.00;;;3.37;;
14377;SDS011;7272;53.668;9.578;2022-11-20T01:52:27;5.17;;;3.67;;
14377;SDS011;7272;53.668;9.578;2022-11-20T01:55:34;4.30;;;3.90;;
14377;SDS011;7272;53.668;9.578;2022-11-20T01:58:42;4.40;;;4.00;;
14377;SDS011;7272;53.668;9.578;2022-11-20T02:01:48;4.03;;;3.27;;
14377;SDS011;7272;53.668;9.578;2022-11-20T02:04:51;3.93;;;3.57;;
14377;SDS011;7272;53.668;9.578;2022-11-20T02:07:57;5.10;;;3.90;;
14377;SDS011;7272;53.668;9.578;2022-11-20T02:11:00;3.60;;;3.30;;
14377;SDS011;7272;53.668;9.578;2022-11-20T02:14:03;4.53;;;3.30;;
14377;SDS011;7272;53.668;9.578;2022-11-20T02:17:05;3.67;;;3.43;;
14377;SDS011;7272;53.668;9.578;2022-11-20T02:20:07;2.93;;;2.73;;
14377;SDS011;7272;53.668;9.578;2022-11-20T02:23:12;3.43;;;3.00;;
14377;SDS011;7272;53.668;9.578;2022-11-20T02:26:20;3.13;;;2.83;;
14377;SDS011;7272;53.668;9.578;2022-11-20T02:29:25;4.07;;;3.37;;
14377;SDS011;7272;53.668;9.578;2022-11-20T02:32:32;3.40;;;3.10;;
14377;SDS011;7272;53.668;9.578;2022-11-20T02:35:40;3.27;;;2.93;;
14377;SDS011;7272;53.668;9.578;2022-11-20T02:38:43;2.83;;;2.63;;
14377;SDS011;7272;53.668;9.578;2022-11-20T02:41:47;2.50;;;2.30;;
14377;SDS011;7272;53.668;9.578;2022-11-20T02:44:49;3.13;;;2.60;;
14377;SDS011;7272;53.668;9.578;2022-11-20T02:47:51;3.33;;;3.00;;
14377;SDS011;7272;53.668;9.578;2022-11-20T02:50:53;3.30;;;3.00;;
14377;SDS011;7272;53.668;9.578;2022-11-20T02:53:55;3.17;;;2.90;;
14377;SDS011;7272;53.668;9.578;2022-11-20T02:56:59;2.87;;;2.67;;
14377;SDS011;7272;53.668;9.578;2022-11-20T03:00:01;2.90;;;2.70;;
14377;SDS011;7272;53.668;9.578;2022-11-20T03:03:04;2.93;;;2.73;;
14377;SDS011;7272;53.668;9.578;2022-11-20T03:06:06;3.07;;;2.83;;
14377;SDS011;7272;53.668;9.578;2022-11-20T03:09:08;3.40;;;3.10;;
14377;SDS011;7272;53.668;9.578;2022-11-20T03:12:11;3.47;;;3.00;;
14377;SDS011;7272;53.668;9.578;2022-11-20T03:15:13;3.50;;;3.17;;
14377;SDS011;7272;53.668;9.578;2022-11-20T03:18:15;3.77;;;3.07;;
14377;SDS011;7272;53.668;9.578;2022-11-20T03:21:17;3.80;;;3.33;;
14377;SDS011;7272;53.668;9.578;2022-11-20T03:24:19;3.50;;;3.20;;
14377;SDS011;7272;53.668;9.578;2022-11-20T03:27:22;3.30;;;2.70;;
14377;SDS011;7272;53.668;9.578;2022-11-20T03:30:24;3.70;;;3.40;;
14377;SDS011;7272;53.668;9.578;2022-11-20T03:33:27;3.30;;;3.10;;
14377;SDS011;7272;53.668;9.578;2022-11-20T03:36:30;3.17;;;2.97;;
14377;SDS011;7272;53.668;9.578;2022-11-20T03:39:31;3.60;;;3.30;;
14377;SDS011;7272;53.668;9.578;2022-11-20T03:42:35;3.17;;;2.97;;
14377;SDS011;7272;53.668;9.578;2022-11-20T03:45:46;2.77;;;2.57;;
14377;SDS011;7272;53.668;9.578;2022-11-20T03:48:48;3.90;;;3.00;;
14377;SDS011;7272;53.668;9.578;2022-11-20T03:51:50;3.10;;;2.90;;
14377;SDS011;7272;53.668;9.578;2022-11-20T03:54:52;3.37;;;3.07;;
14377;SDS011;7272;53.668;9.578;2022-11-20T03:57:55;4.33;;;3.30;;
14377;SDS011;7272;53.668;9.578;2022-11-20T04:00:57;3.30;;;3.10;;
14377;SDS011;7272;53.668;9.578;2022-11-20T04:03:59;3.63;;;3.30;;
14377;SDS011;7272;53.668;9.578;2022-11-20T04:07:01;3.90;;;3.60;;
14377;SDS011;7272;53.668;9.578;2022-11-20T04:10:04;3.37;;;3.10;;
14377;SDS011;7272;53.668;9.578;2022-11-20T04:13:07;4.00;;;3.63;;
14377;SDS011;7272;53.668;9.578;2022-11-20T04:16:09;5.03;;;3.43;;
14377;SDS011;7272;53.668;9.578;2022-11-20T04:19:12;3.53;;;3.23;;
14377;SDS011;7272;53.668;9.578;2022-11-20T04:22:15;3.30;;;3.10;;
14377;SDS011;7272;53.668;9.578;2022-11-20T04:25:17;2.93;;;2.63;;
14377;SDS011;7272;53.668;9.578;2022-11-20T04:28:20;3.20;;;3.00;;
14377;SDS011;7272;53.668;9.578;2022-11-20T04:31:23;3.93;;;3.63;;
14377;SDS011;7272;53.668;9.578;2022-11-20T04:34:27;3.10;;;2.90;;
14377;SDS011;7272;53.668;9.578;2022-11-20T04:37:29;3.47;;;3.20;;
14377;SDS011;7272;53.668;9.578;2022-11-20T04:40:30;3.10;;;2.87;;
14377;SDS011;7272;53.668;9.578;2022-11-20T04:43:34;4.23;;;3.63;;
14377;SDS011;7272;53.668;9.578;2022-11-20T04:46:36;3.37;;;2.60;;
14377;SDS011;7272;53.668;9.578;2022-11-20T04:49:40;3.60;;;3.10;;
14377;SDS011;7272;53.668;9.578;2022-11-20T04:52:42;2.60;;;2.40;;
14377;SDS011;7272;53.668;9.578;2022-11-20T04:55:44;5.07;;;3.20;;
14377;SDS011;7272;53.668;9.578;2022-11-20T04:58:47;3.83;;;3.53;;
14377;SDS011;7272;53.668;9.578;2022-11-20T05:01:49;3.60;;;3.37;;
14377;SDS011;7272;53.668;9.578;2022-11-20T05:04:51;3.70;;;3.40;;
14377;SDS011;7272;53.668;9.578;2022-11-20T05:07:55;3.57;;;3.27;;
14377;SDS011;7272;53.668;9.578;2022-11-20T05:10:59;3.53;;;3.20;;
14377;SDS011;7272;53.668;9.578;2022-11-20T05:14:03;3.50;;;3.20;;
14377;SDS011;7272;53.668;9.578;2022-11-20T05:17:05;3.50;;;3.20;;
14377;SDS011;7272;53.668;9.578;2022-11-20T05:20:07;3.60;;;3.13;;
14377;SDS011;7272;53.668;9.578;2022-11-20T05:23:10;3.20;;;2.67;;
14377;SDS011;7272;53.668;9.578;2022-11-20T05:26:12;3.30;;;3.00;;
14377;SDS011;7272;53.668;9.578;2022-11-20T05:29:17;3.27;;;3.00;;
14377;SDS011;7272;53.668;9.578;2022-11-20T05:32:18;2.93;;;2.67;;
14377;SDS011;7272;53.668;9.578;2022-11-20T05:35:20;2.90;;;2.70;;
14377;SDS011;7272;53.668;9.578;2022-11-20T05:38:22;3.50;;;3.20;;
14377;SDS011;7272;53.668;9.578;2022-11-20T05:41:24;3.23;;;2.93;;
14377;SDS011;7272;53.668;9.578;2022-11-20T05:44:28;4.00;;;3.63;;
14377;SDS011;7272;53.668;9.578;2022-11-20T05:47:31;4.50;;;3.30;;
14377;SDS011;7272;53.668;9.578;2022-11-20T05:50:34;3.60;;;3.30;;
14377;SDS011;7272;53.668;9.578;2022-11-20T05:53:37;4.27;;;3.23;;
14377;SDS011;7272;53.668;9.578;2022-11-20T05:56:39;3.60;;;3.23;;
14377;SDS011;7272;53.668;9.578;2022-11-20T05:59:42;4.20;;;3.90;;
14377;SDS011;7272;53.668;9.578;2022-11-20T06:02:44;3.73;;;3.30;;
14377;SDS011;7272;53.668;9.578;2022-11-20T06:05:46;3.50;;;3.20;;
14377;SDS011;7272;53.668;9.578;2022-11-20T06:08:48;4.07;;;3.43;;
14377;SDS011;7272;53.668;9.578;2022-11-20T06:11:50;3.77;;;3.47;;
14377;SDS011;7272;53.668;9.578;2022-11-20T06:14:53;3.70;;;3.40;;
14377;SDS011;7272;53.668;9.578;2022-11-20T06:17:55;3.13;;;2.90;;
14377;SDS011;7272;53.668;9.578;2022-11-20T06:20:59;3.20;;;2.90;;
14377;SDS011;7272;53.668;9.578;2022-11-20T06:24:02;3.60;;;3.30;;
14377;SDS011;7272;53.668;9.578;2022-11-20T06:27:04;3.23;;;2.93;;
14377;SDS011;7272;53.668;9.578;2022-11-20T06:30:08;3.50;;;3.20;;
14377;SDS011;7272;53.668;9.578;2022-11-20T06:33:11;4.83;;;3.33;;
14377;SDS011;7272;53.668;9.578;2022-11-20T06:36:13;3.70;;;3.40;;
14377;SDS011;7272;53.668;9.578;2022-11-20T06:39:16;3.77;;;3.43;;
14377;SDS011;7272;53.668;9.578;2022-11-20T06:42:18;3.50;;;3.20;;
14377;SDS011;7272;53.668;9.578;2022-11-20T06:45:21;3.60;;;3.30;;
14377;SDS011;7272;53.668;9.578;2022-11-20T06:48:23;3.53;;;3.23;;
14377;SDS011;7272;53.668;9.578;2022-11-20T06:51:26;3.87;;;3.53;;
14377;SDS011;7272;53.668;9.578;2022-11-20T06:54:28;3.67;;;3.33;;
14377;SDS011;7272;53.668;9.578;2022-11-20T06:57:30;3.93;;;3.47;;
14377;SDS011;7272;53.668;9.578;2022-11-20T07:00:34;4.00;;;3.70;;
14377;SDS011;7272;53.668;9.578;2022-11-20T07:03:36;4.43;;;3.13;;
14377;SDS011;7272;53.668;9.578;2022-11-20T07:06:38;4.50;;;3.43;;
14377;SDS011;7272;53.668;9.578;2022-11-20T07:09:40;4.07;;;3.10;;
14377;SDS011;7272;53.668;9.578;2022-11-20T07:12:42;4.83;;;3.53;;
14377;SDS011;7272;53.668;9.578;2022-11-20T07:15:45;4.40;;;4.00;;
14377;SDS011;7272;53.668;9.578;2022-11-20T07:18:47;4.17;;;3.30;;
14377;SDS011;7272;53.668;9.578;2022-11-20T07:21:49;3.27;;;2.50;;
14377;SDS011;7272;53.668;9.578;2022-11-20T07:24:51;3.90;;;3.50;;
14377;SDS011;7272;53.668;9.578;2022-11-20T07:27:53;4.37;;;3.70;;
14377;SDS011;7272;53.668;9.578;2022-11-20T07:30:59;5.10;;;3.43;;
14377;SDS011;7272;53.668;9.578;2022-11-20T07:34:01;3.17;;;2.87;;
14377;SDS011;7272;53.668;9.578;2022-11-20T07:37:03;4.43;;;4.03;;
14377;SDS011;7272;53.668;9.578;2022-11-20T07:40:05;3.13;;;2.93;;
14377;SDS011;7272;53.668;9.578;2022-11-20T07:43:07;3.90;;;2.83;;
14377;SDS011;7272;53.668;9.578;2022-11-20T07:46:10;3.30;;;3.00;;
14377;SDS011;7272;53.668;9.578;2022-11-20T07:49:12;4.00;;;3.70;;
14377;SDS011;7272;53.668;9.578;2022-11-20T07:52:14;3.73;;;3.50;;
14377;SDS011;7272;53.668;9.578;2022-11-20T07:55:16;4.33;;;3.93;;
14377;SDS011;7272;53.668;9.578;2022-11-20T07:58:18;3.73;;;3.43;;
14377;SDS011;7272;53.668;9.578;2022-11-20T08:01:21;3.63;;;3.37;;
14377;SDS011;7272;53.668;9.578;2022-11-20T08:04:23;3.70;;;3.40;;
14377;SDS011;7272;53.668;9.578;2022-11-20T08:07:25;3.20;;;3.00;;
14377;SDS011;7272;53.668;9.578;2022-11-20T08:10:27;3.73;;;3.43;;
14377;SDS011;7272;53.668;9.578;2022-11-20T08:13:29;3.80;;;3.50;;
14377;SDS011;7272;53.668;9.578;2022-11-20T08:16:50;3.87;;;3.53;;
14377;SDS011;7272;53.668;9.578;2022-11-20T08:19:52;3.63;;;3.37;;
14377;SDS011;7272;53.668;9.578;2022-11-20T08:22:57;3.67;;;3.37;;
14377;SDS011;7272;53.668;9.578;2022-11-20T08:26:00;4.23;;;3.83;;
14377;SDS011;7272;53.668;9.578;2022-11-20T08:29:02;4.13;;;3.73;;
14377;SDS011;7272;53.668;9.578;2022-11-20T08:32:06;4.20;;;3.80;;
14377;SDS011;7272;53.668;9.578;2022-11-20T08:35:09;3.70;;;3.40;;
14377;SDS011;7272;53.668;9.578;2022-11-20T08:38:11;3.63;;;3.43;;
14377;SDS011;7272;53.668;9.578;2022-11-20T08:41:13;3.60;;;3.40;;
14377;SDS011;7272;53.668;9.578;2022-11-20T08:44:27;3.70;;;3.40;;
14377;SDS011;7272;53.668;9.578;2022-11-20T08:47:30;4.40;;;4.00;;
14377;SDS011;7272;53.668;9.578;2022-11-20T08:50:32;3.43;;;3.23;;
14377;SDS011;7272;53.668;9.578;2022-11-20T08:53:34;4.00;;;3.70;;
14377;SDS011;7272;53.668;9.578;2022-11-20T08:56:36;3.17;;;2.97;;
14377;SDS011;7272;53.668;9.578;2022-11-20T08:59:37;3.43;;;3.23;;
14377;SDS011;7272;53.668;9.578;2022-11-20T09:02:41;2.80;;;2.60;;
14377;SDS011;7272;53.668;9.578;2022-11-20T09:05:43;2.80;;;2.60;;
14377;SDS011;7272;53.668;9.578;2022-11-20T09:08:45;2.97;;;2.77;;
14377;SDS011;7272;53.668;9.578;2022-11-20T09:11:46;3.00;;;2.80;;
14377;SDS011;7272;53.668;9.578;2022-11-20T09:14:50;3.07;;;2.87;;
14377;SDS011;7272;53.668;9.578;2022-11-20T09:17:53;3.10;;;2.90;;
14377;SDS011;7272;53.668;9.578;2022-11-20T09:20:56;3.50;;;3.20;;
14377;SDS011;7272;53.668;9.578;2022-11-20T09:23:58;2.90;;;2.70;;
14377;SDS011;7272;53.668;9.578;2022-11-20T09:27:04;3.13;;;2.93;;
14377;SDS011;7272;53.668;9.578;2022-11-20T09:30:06;3.43;;;3.13;;
14377;SDS011;7272;53.668;9.578;2022-11-20T09:33:10;2.93;;;2.63;;
14377;SDS011;7272;53.668;9.578;2022-11-20T09:36:12;3.10;;;2.87;;
14377;SDS011;7272;53.668;9.578;2022-11-20T09:39:14;3.13;;;2.93;;
14377;SDS011;7272;53.668;9.578;2022-11-20T09:42:23;2.53;;;2.43;;
14377;SDS011;7272;53.668;9.578;2022-11-20T09:45:42;3.53;;;3.27;;
14377;SDS011;7272;53.668;9.578;2022-11-20T09:48:55;3.20;;;2.90;;
14377;SDS011;7272;53.668;9.578;2022-11-20T09:52:20;3.10;;;2.90;;
14377;SDS011;7272;53.668;9.578;2022-11-20T09:55:31;3.27;;;3.00;;
14377;SDS011;7272;53.668;9.578;2022-11-20T09:58:40;3.30;;;3.10;;
14377;SDS011;7272;53.668;9.578;2022-11-20T10:01:45;3.37;;;3.17;;
14377;SDS011;7272;53.668;9.578;2022-11-20T10:05:01;3.47;;;3.20;;
14377;SDS011;7272;53.668;9.578;2022-11-20T10:08:08;3.40;;;3.20;;
14377;SDS011;7272;53.668;9.578;2022-11-20T10:11:18;3.90;;;3.60;;
14377;SDS011;7272;53.668;9.578;2022-11-20T10:14:30;4.03;;;3.53;;
14377;SDS011;7272;53.668;9.578;2022-11-20T10:17:58;3.17;;;2.97;;
14377;SDS011;7272;53.668;9.578;2022-11-20T10:21:11;3.73;;;3.47;;
14377;SDS011;7272;53.668;9.578;2022-11-20T10:24:35;4.60;;;4.20;;
14377;SDS011;7272;53.668;9.578;2022-11-20T10:27:56;4.60;;;4.30;;
14377;SDS011;7272;53.668;9.578;2022-11-20T10:31:17;4.20;;;3.90;;
14377;SDS011;7272;53.668;9.578;2022-11-20T10:34:30;3.70;;;3.50;;
14377;SDS011;7272;53.668;9.578;2022-11-20T10:37:37;3.83;;;3.53;;
14377;SDS011;7272;53.668;9.578;2022-11-20T10:40:44;3.90;;;3.60;;
14377;SDS011;7272;53.668;9.578;2022-11-20T10:43:50;4.63;;;4.20;;
14377;SDS011;7272;53.668;9.578;2022-11-20T10:46:57;4.30;;;4.00;;
14377;SDS011;7272;53.668;9.578;2022-11-20T10:50:01;4.10;;;3.80;;
14377;SDS011;7272;53.668;9.578;2022-11-20T10:53:08;3.67;;;3.47;;
14377;SDS011;7272;53.668;9.578;2022-11-20T10:56:21;3.37;;;3.13;;
14377;SDS011;7272;53.668;9.578;2022-11-20T10:59:34;3.70;;;3.40;;
14377;SDS011;7272;53.668;9.578;2022-11-20T11:02:59;3.17;;;2.87;;
14377;SDS011;7272;53.668;9.578;2022-11-20T11:06:03;3.80;;;3.50;;
14377;SDS011;7272;53.668;9.578;2022-11-20T11:09:13;4.37;;;3.40;;
14377;SDS011;7272;53.668;9.578;2022-11-20T11:12:19;3.43;;;3.13;;
14377;SDS011;7272;53.668;9.578;2022-11-20T11:15:27;3.80;;;3.50;;
14377;SDS011;7272;53.668;9.578;2022-11-20T11:18:31;3.97;;;3.67;;
14377;SDS011;7272;53.668;9.578;2022-11-20T11:21:33;4.50;;;4.10;;
14377;SDS011;7272;53.668;9.578;2022-11-20T11:24:43;3.43;;;3.23;;
14377;SDS011;7272;53.668;9.578;2022-11-20T11:27:54;4.33;;;3.60;;
14377;SDS011;7272;53.668;9.578;2022-11-20T11:30:58;4.20;;;3.80;;
14377;SDS011;7272;53.668;9.578;2022-11-20T11:34:04;4.60;;;3.20;;
14377;SDS011;7272;53.668;9.578;2022-11-20T11:37:10;4.10;;;3.80;;
14377;SDS011;7272;53.668;9.578;2022-11-20T11:40:18;3.70;;;3.40;;
14377;SDS011;7272;53.668;9.578;2022-11-20T11:43:22;3.80;;;3.50;;
14377;SDS011;7272;53.668;9.578;2022-11-20T11:46:49;3.40;;;3.20;;
14377;SDS011;7272;53.668;9.578;2022-11-20T11:50:02;3.20;;;3.00;;
14377;SDS011;7272;53.668;9.578;2022-11-20T11:53:16;3.13;;;2.93;;
14377;SDS011;7272;53.668;9.578;2022-11-20T11:56:21;3.33;;;3.13;;
14377;SDS011;7272;53.668;9.578;2022-11-20T11:59:25;3.50;;;3.20;;
14377;SDS011;7272;53.668;9.578;2022-11-20T12:02:35;3.40;;;3.20;;
14377;SDS011;7272;53.668;9.578;2022-11-20T12:05:40;3.83;;;3.53;;
14377;SDS011;7272;53.668;9.578;2022-11-20T12:08:46;3.27;;;3.07;;
14377;SDS011;7272;53.668;9.578;2022-11-20T12:11:56;3.23;;;3.03;;
14377;SDS011;7272;53.668;9.578;2022-11-20T12:15:06;3.43;;;3.20;;
14377;SDS011;7272;53.668;9.578;2022-11-20T12:18:14;3.80;;;3.50;;
14377;SDS011;7272;53.668;9.578;2022-11-20T12:21:19;3.57;;;3.37;;
14377;SDS011;7272;53.668;9.578;2022-11-20T12:24:32;3.83;;;3.63;;
14377;SDS011;7272;53.668;9.578;2022-11-20T12:27:47;3.47;;;3.27;;
14377;SDS011;7272;53.668;9.578;2022-11-20T12:31:14;2.90;;;2.70;;
14377;SDS011;7272;53.668;9.578;2022-11-20T12:37:56;3.00;;;2.80;;
14377;SDS011;7272;53.668;9.578;2022-11-20T12:41:11;2.23;;;2.13;;
14377;SDS011;7272;53.668;9.578;2022-11-20T12:44:57;3.17;;;2.97;;
14377;SDS011;7272;53.668;9.578;2022-11-20T12:48:25;2.87;;;2.67;;
14377;SDS011;7272;53.668;9.578;2022-11-20T12:51:45;2.53;;;2.43;;
14377;SDS011;7272;53.668;9.578;2022-11-20T12:55:02;3.47;;;2.60;;
14377;SDS011;7272;53.668;9.578;2022-11-20T12:58:20;3.10;;;2.90;;
14377;SDS011;7272;53.668;9.578;2022-11-20T13:01:30;3.97;;;3.30;;
14377;SDS011;7272;53.668;9.578;2022-11-20T13:04:49;3.30;;;3.10;;
14377;SDS011;7272;53.668;9.578;2022-11-20T13:08:02;2.70;;;2.50;;
14377;SDS011;7272;53.668;9.578;2022-11-20T13:11:12;3.20;;;3.00;;
14377;SDS011;7272;53.668;9.578;2022-11-20T13:14:27;2.70;;;2.50;;
14377;SDS011;7272;53.668;9.578;2022-11-20T13:17:36;2.07;;;1.90;;
14377;SDS011;7272;53.668;9.578;2022-11-20T13:20:44;3.03;;;2.83;;
14377;SDS011;7272;53.668;9.578;2022-11-20T13:23:46;2.83;;;2.63;;
14377;SDS011;7272;53.668;9.578;2022-11-20T13:26:58;3.10;;;2.90;;
14377;SDS011;7272;53.668;9.578;2022-11-20T13:30:12;3.00;;;2.80;;
14377;SDS011;7272;53.668;9.578;2022-11-20T13:33:23;2.50;;;2.40;;
14377;SDS011;7272;53.668;9.578;2022-11-20T13:36:29;2.57;;;2.40;;
14377;SDS011;7272;53.668;9.578;2022-11-20T13:39:36;2.30;;;2.20;;
14377;SDS011;7272;53.668;9.578;2022-11-20T13:42:39;2.63;;;2.43;;
14377;SDS011;7272;53.668;9.578;2022-11-20T13:45:54;2.20;;;1.80;;
14377;SDS011;7272;53.668;9.578;2022-11-20T13:49:05;2.30;;;2.20;;
14377;SDS011;7272;53.668;9.578;2022-11-20T13:52:20;2.10;;;2.00;;
14377;SDS011;7272;53.668;9.578;2022-11-20T13:55:37;2.13;;;1.93;;
14377;SDS011;7272;53.668;9.578;2022-11-20T13:58:45;2.10;;;2.00;;
14377;SDS011;7272;53.668;9.578;2022-11-20T14:01:53;1.57;;;1.57;;
14377;SDS011;7272;53.668;9.578;2022-11-20T14:04:58;2.13;;;2.03;;
14377;SDS011;7272;53.668;9.578;2022-11-20T14:08:02;1.90;;;1.80;;
14377;SDS011;7272;53.668;9.578;2022-11-20T14:11:06;1.80;;;1.70;;
14377;SDS011;7272;53.668;9.578;2022-11-20T14:14:16;1.80;;;1.70;;
14377;SDS011;7272;53.668;9.578;2022-11-20T14:17:20;1.80;;;1.70;;
14377;SDS011;7272;53.668;9.578;2022-11-20T14:20:25;1.67;;;1.57;;
14377;SDS011;7272;53.668;9.578;2022-11-20T14:23:31;1.87;;;1.77;;
14377;SDS011;7272;53.668;9.578;2022-11-20T14:26:33;1.80;;;1.70;;
14377;SDS011;7272;53.668;9.578;2022-11-20T14:29:36;2.00;;;1.90;;
14377;SDS011;7272;53.668;9.578;2022-11-20T14:32:40;1.80;;;1.70;;
14377;SDS011;7272;53.668;9.578;2022-11-20T14:35:46;2.03;;;1.93;;
14377;SDS011;7272;53.668;9.578;2022-11-20T14:38:49;1.97;;;1.87;;
14377;SDS011;7272;53.668;9.578;2022-11-20T14:41:52;2.37;;;2.17;;
14377;SDS011;7272;53.668;9.578;2022-11-20T14:44:57;2.57;;;2.37;;
14377;SDS011;7272;53.668;9.578;2022-11-20T14:48:00;2.80;;;2.60;;
14377;SDS011;7272;53.668;9.578;2022-11-20T14:51:03;2.70;;;2.50;;
14377;SDS011;7272;53.668;9.578;2022-11-20T14:54:09;2.97;;;2.77;;
14377;SDS011;7272;53.668;9.578;2022-11-20T15:00:36;2.70;;;2.50;;
14377;SDS011;7272;53.668;9.578;2022-11-20T15:03:38;3.13;;;2.90;;
14377;SDS011;7272;53.668;9.578;2022-11-20T15:06:50;3.33;;;3.03;;
14377;SDS011;7272;53.668;9.578;2022-11-20T15:10:00;3.17;;;2.97;;
14377;SDS011;7272;53.668;9.578;2022-11-20T15:13:03;2.90;;;2.70;;
14377;SDS011;7272;53.668;9.578;2022-11-20T15:16:13;2.77;;;2.57;;
14377;SDS011;7272;53.668;9.578;2022-11-20T15:19:20;3.17;;;2.97;;
14377;SDS011;7272;53.668;9.578;2022-11-20T15:22:24;3.10;;;2.90;;
14377;SDS011;7272;53.668;9.578;2022-11-20T15:25:26;2.60;;;2.47;;
14377;SDS011;7272;53.668;9.578;2022-11-20T15:28:29;3.63;;;2.90;;
14377;SDS011;7272;53.668;9.578;2022-11-20T15:31:32;2.63;;;2.53;;
14377;SDS011;7272;53.668;9.578;2022-11-20T15:34:35;3.33;;;3.13;;
14377;SDS011;7272;53.668;9.578;2022-11-20T15:37:38;2.80;;;2.60;;
14377;SDS011;7272;53.668;9.578;2022-11-20T15:40:40;3.70;;;3.40;;
14377;SDS011;7272;53.668;9.578;2022-11-20T15:43:42;3.00;;;2.50;;
14377;SDS011;7272;53.668;9.578;2022-11-20T15:46:44;3.30;;;3.00;;
14377;SDS011;7272;53.668;9.578;2022-11-20T15:49:46;3.30;;;3.00;;
14377;SDS011;7272;53.668;9.578;2022-11-20T15:52:49;3.10;;;2.80;;
14377;SDS011;7272;53.668;9.578;2022-11-20T15:55:51;2.80;;;2.60;;
14377;SDS011;7272;53.668;9.578;2022-11-20T15:58:53;3.00;;;2.80;;
14377;SDS011;7272;53.668;9.578;2022-11-20T16:01:55;2.57;;;2.40;;
14377;SDS011;7272;53.668;9.578;2022-11-20T16:04:57;2.47;;;2.27;;
14377;SDS011;7272;53.668;9.578;2022-11-20T16:08:00;2.87;;;2.67;;
14377;SDS011;7272;53.668;9.578;2022-11-20T16:11:02;2.57;;;2.37;;
14377;SDS011;7272;53.668;9.578;2022-11-20T16:14:05;2.87;;;2.67;;
14377;SDS011;7272;53.668;9.578;2022-11-20T16:17:24;2.70;;;2.50;;
14377;SDS011;7272;53.668;9.578;2022-11-20T16:20:42;2.63;;;2.47;;
14377;SDS011;7272;53.668;9.578;2022-11-20T16:23:46;1.80;;;1.70;;
14377;SDS011;7272;53.668;9.578;2022-11-20T16:26:48;2.30;;;2.10;;
14377;SDS011;7272;53.668;9.578;2022-11-20T16:29:50;2.90;;;2.70;;
14377;SDS011;7272;53.668;9.578;2022-11-20T16:32:52;2.50;;;2.40;;
14377;SDS011;7272;53.668;9.578;2022-11-20T16:35:54;3.63;;;2.70;;
14377;SDS011;7272;53.668;9.578;2022-11-20T16:38:57;2.70;;;2.50;;
14377;SDS011;7272;53.668;9.578;2022-11-20T16:42:02;3.03;;;2.83;;
14377;SDS011;7272;53.668;9.578;2022-11-20T16:45:05;2.30;;;2.20;;
14377;SDS011;7272;53.668;9.578;2022-11-20T16:48:11;2.37;;;2.27;;
14377;SDS011;7272;53.668;9.578;2022-11-20T16:51:13;2.70;;;2.50;;
14377;SDS011;7272;53.668;9.578;2022-11-20T16:54:16;2.40;;;2.20;;
14377;SDS011;7272;53.668;9.578;2022-11-20T16:57:18;2.67;;;2.47;;
14377;SDS011;7272;53.668;9.578;2022-11-20T17:00:20;3.40;;;3.20;;
14377;SDS011;7272;53.668;9.578;2022-11-20T17:03:22;3.90;;;3.60;;
14377;SDS011;7272;53.668;9.578;2022-11-20T17:06:24;4.50;;;4.10;;
14377;SDS011;7272;53.668;9.578;2022-11-20T17:09:29;3.50;;;3.20;;
14377;SDS011;7272;53.668;9.578;2022-11-20T17:12:30;3.13;;;2.93;;
14377;SDS011;7272;53.668;9.578;2022-11-20T17:15:32;3.17;;;2.97;;
14377;SDS011;7272;53.668;9.578;2022-11-20T17:18:34;3.60;;;3.03;;
14377;SDS011;7272;53.668;9.578;2022-11-20T17:21:37;2.80;;;2.60;;
14377;SDS011;7272;53.668;9.578;2022-11-20T17:24:40;3.83;;;3.40;;
14377;SDS011;7272;53.668;9.578;2022-11-20T17:27:42;3.43;;;3.20;;
14377;SDS011;7272;53.668;9.578;2022-11-20T17:30:44;3.20;;;3.00;;
14377;SDS011;7272;53.668;9.578;2022-11-20T17:33:46;2.93;;;2.73;;
14377;SDS011;7272;53.668;9.578;2022-11-20T17:36:48;3.93;;;3.63;;
14377;SDS011;7272;53.668;9.578;2022-11-20T17:39:51;4.00;;;3.60;;
14377;SDS011;7272;53.668;9.578;2022-11-20T17:42:53;3.83;;;3.53;;
14377;SDS011;7272;53.668;9.578;2022-11-20T17:45:55;3.37;;;3.10;;
14377;SDS011;7272;53.668;9.578;2022-11-20T17:48:58;4.00;;;3.70;;
14377;SDS011;7272;53.668;9.578;2022-11-20T17:52:00;4.37;;;4.07;;
14377;SDS011;7272;53.668;9.578;2022-11-20T17:55:04;5.00;;;4.60;;
14377;SDS011;7272;53.668;9.578;2022-11-20T17:58:06;5.00;;;4.60;;
14377;SDS011;7272;53.668;9.578;2022-11-20T18:01:08;4.57;;;4.27;;
14377;SDS011;7272;53.668;9.578;2022-11-20T18:04:10;3.77;;;3.40;;
14377;SDS011;7272;53.668;9.578;2022-11-20T18:07:13;4.23;;;3.93;;
14377;SDS011;7272;53.668;9.578;2022-11-20T18:10:16;3.97;;;3.67;;
14377;SDS011;7272;53.668;9.578;2022-11-20T18:13:18;3.40;;;3.20;;
14377;SDS011;7272;53.668;9.578;2022-11-20T18:16:41;3.80;;;3.50;;
14377;SDS011;7272;53.668;9.578;2022-11-20T18:19:44;5.10;;;4.70;;
14377;SDS011;7272;53.668;9.578;2022-11-20T18:22:47;5.07;;;4.63;;
14377;SDS011;7272;53.668;9.578;2022-11-20T18:25:50;4.00;;;3.70;;
14377;SDS011;7272;53.668;9.578;2022-11-20T18:28:52;3.67;;;3.40;;
14377;SDS011;7272;53.668;9.578;2022-11-20T18:31:54;5.37;;;4.13;;
14377;SDS011;7272;53.668;9.578;2022-11-20T18:34:56;4.77;;;4.37;;
14377;SDS011;7272;53.668;9.578;2022-11-20T18:37:58;5.83;;;5.33;;
14377;SDS011;7272;53.668;9.578;2022-11-20T18:41:01;6.23;;;5.73;;
14377;SDS011;7272;53.668;9.578;2022-11-20T18:44:04;7.17;;;6.47;;
14377;SDS011;7272;53.668;9.578;2022-11-20T18:47:26;6.53;;;5.93;;
14377;SDS011;7272;53.668;9.578;2022-11-20T18:50:30;6.33;;;5.73;;
14377;SDS011;7272;53.668;9.578;2022-11-20T18:53:33;6.17;;;5.63;;
14377;SDS011;7272;53.668;9.578;2022-11-20T18:56:36;4.83;;;4.43;;
14377;SDS011;7272;53.668;9.578;2022-11-20T18:59:38;4.83;;;4.43;;